sensor_id;sensor_type;location;lat;lon;timestamp;P1;durP1;ratioP1;P2;durP2;ratioP2
67816;SDS011;54614;47.576;7.524;2023-01-04T00:01:13;4.13;;;3.63;;
67816;SDS011;54614;47.576;7.524;2023-01-04T00:03:43;4.15;;;3.50;;
67816;SDS011;54614;47.576;7.524;2023-01-04T00:06:10;6.72;;;3.30;;
67816;SDS011;54614;47.576;7.524;2023-01-04T00:08:39;5.15;;;3.40;;
67816;SDS011;54614;47.576;7.524;2023-01-04T00:11:07;5.05;;;3.38;;
67816;SDS011;54614;47.576;7.524;2023-01-04T00:13:41;7.22;;;3.38;;
67816;SDS011;54614;47.576;7.524;2023-01-04T00:16:11;5.35;;;3.38;;
67816;SDS011;54614;47.576;7.524;2023-01-04T00:18:40;6.10;;;3.30;;
67816;SDS011;54614;47.576;7.524;2023-01-04T00:21:11;5.30;;;3.25;;
67816;SDS011;54614;47.576;7.524;2023-01-04T00:23:44;5.97;;;3.53;;
67816;SDS011;54614;47.576;7.524;2023-01-04T00:26:17;4.85;;;3.45;;
67816;SDS011;54614;47.576;7.524;2023-01-04T00:28:55;6.03;;;3.30;;
67816;SDS011;54614;47.576;7.524;2023-01-04T00:31:24;4.82;;;3.30;;
67816;SDS011;54614;47.576;7.524;2023-01-04T00:33:52;5.05;;;3.25;;
67816;SDS011;54614;47.576;7.524;2023-01-04T00:36:20;4.28;;;3.53;;
67816;SDS011;54614;47.576;7.524;2023-01-04T00:38:46;3.58;;;3.20;;
67816;SDS011;54614;47.576;7.524;2023-01-04T00:41:30;3.95;;;3.08;;
67816;SDS011;54614;47.576;7.524;2023-01-04T00:44:17;3.83;;;3.22;;
67816;SDS011;54614;47.576;7.524;2023-01-04T00:46:45;6.07;;;3.45;;
67816;SDS011;54614;47.576;7.524;2023-01-04T00:49:11;5.97;;;3.30;;
67816;SDS011;54614;47.576;7.524;2023-01-04T00:51:38;4.47;;;3.30;;
67816;SDS011;54614;47.576;7.524;2023-01-04T00:54:07;3.40;;;2.90;;
67816;SDS011;54614;47.576;7.524;2023-01-04T00:56:38;5.25;;;3.22;;
67816;SDS011;54614;47.576;7.524;2023-01-04T00:59:03;8.85;;;3.40;;
67816;SDS011;54614;47.576;7.524;2023-01-04T01:01:31;5.13;;;3.20;;
67816;SDS011;54614;47.576;7.524;2023-01-04T01:03:59;4.85;;;3.38;;
67816;SDS011;54614;47.576;7.524;2023-01-04T01:06:29;4.65;;;3.00;;
67816;SDS011;54614;47.576;7.524;2023-01-04T01:08:56;4.40;;;3.13;;
67816;SDS011;54614;47.576;7.524;2023-01-04T01:11:23;3.97;;;3.10;;
67816;SDS011;54614;47.576;7.524;2023-01-04T01:13:50;3.30;;;2.85;;
67816;SDS011;54614;47.576;7.524;2023-01-04T01:16:18;4.30;;;3.25;;
67816;SDS011;54614;47.576;7.524;2023-01-04T01:18:46;4.32;;;2.95;;
67816;SDS011;54614;47.576;7.524;2023-01-04T01:21:16;5.70;;;2.83;;
67816;SDS011;54614;47.576;7.524;2023-01-04T01:23:48;4.60;;;2.90;;
67816;SDS011;54614;47.576;7.524;2023-01-04T01:26:19;4.00;;;2.72;;
67816;SDS011;54614;47.576;7.524;2023-01-04T01:28:47;5.80;;;2.90;;
67816;SDS011;54614;47.576;7.524;2023-01-04T01:31:14;3.38;;;2.80;;
67816;SDS011;54614;47.576;7.524;2023-01-04T01:33:43;4.33;;;2.90;;
67816;SDS011;54614;47.576;7.524;2023-01-04T01:36:12;3.70;;;3.00;;
67816;SDS011;54614;47.576;7.524;2023-01-04T01:38:40;4.10;;;2.95;;
67816;SDS011;54614;47.576;7.524;2023-01-04T01:41:07;4.00;;;2.95;;
67816;SDS011;54614;47.576;7.524;2023-01-04T01:43:54;2.88;;;2.45;;
67816;SDS011;54614;47.576;7.524;2023-01-04T01:46:28;4.38;;;2.70;;
67816;SDS011;54614;47.576;7.524;2023-01-04T01:51:48;3.35;;;2.58;;
67816;SDS011;54614;47.576;7.524;2023-01-04T01:54:20;3.50;;;2.77;;
67816;SDS011;54614;47.576;7.524;2023-01-04T01:56:57;7.40;;;2.85;;
67816;SDS011;54614;47.576;7.524;2023-01-04T01:59:27;3.13;;;2.70;;
67816;SDS011;54614;47.576;7.524;2023-01-04T02:01:56;3.60;;;2.67;;
67816;SDS011;54614;47.576;7.524;2023-01-04T02:04:22;3.03;;;2.70;;
67816;SDS011;54614;47.576;7.524;2023-01-04T02:06:49;2.90;;;2.50;;
67816;SDS011;54614;47.576;7.524;2023-01-04T02:09:21;3.85;;;2.50;;
67816;SDS011;54614;47.576;7.524;2023-01-04T02:11:48;2.92;;;2.70;;
67816;SDS011;54614;47.576;7.524;2023-01-04T02:14:13;3.38;;;2.50;;
67816;SDS011;54614;47.576;7.524;2023-01-04T02:19:52;2.60;;;2.40;;
67816;SDS011;54614;47.576;7.524;2023-01-04T02:31:10;3.35;;;2.50;;
67816;SDS011;54614;47.576;7.524;2023-01-04T02:34:13;2.70;;;2.50;;
67816;SDS011;54614;47.576;7.524;2023-01-04T02:40:22;3.73;;;2.40;;
67816;SDS011;54614;47.576;7.524;2023-01-04T02:45:43;2.80;;;2.60;;
67816;SDS011;54614;47.576;7.524;2023-01-04T02:48:52;3.50;;;2.23;;
67816;SDS011;54614;47.576;7.524;2023-01-04T02:51:40;3.08;;;2.50;;
67816;SDS011;54614;47.576;7.524;2023-01-04T02:54:07;2.60;;;2.40;;
67816;SDS011;54614;47.576;7.524;2023-01-04T03:02:28;3.83;;;2.40;;
67816;SDS011;54614;47.576;7.524;2023-01-04T03:05:31;2.73;;;2.50;;
67816;SDS011;54614;47.576;7.524;2023-01-04T03:11:48;2.90;;;2.60;;
67816;SDS011;54614;47.576;7.524;2023-01-04T03:14:42;3.15;;;2.45;;
67816;SDS011;54614;47.576;7.524;2023-01-04T03:17:25;3.42;;;2.30;;
67816;SDS011;54614;47.576;7.524;2023-01-04T03:19:59;2.40;;;2.20;;
67816;SDS011;54614;47.576;7.524;2023-01-04T03:22:29;4.28;;;2.40;;
67816;SDS011;54614;47.576;7.524;2023-01-04T03:25:32;2.50;;;2.30;;
67816;SDS011;54614;47.576;7.524;2023-01-04T03:28:27;3.85;;;2.30;;
67816;SDS011;54614;47.576;7.524;2023-01-04T03:31:20;2.40;;;2.20;;
67816;SDS011;54614;47.576;7.524;2023-01-04T03:34:11;3.35;;;2.30;;
67816;SDS011;54614;47.576;7.524;2023-01-04T03:45:47;2.40;;;2.20;;
67816;SDS011;54614;47.576;7.524;2023-01-04T03:48:47;2.35;;;2.15;;
67816;SDS011;54614;47.576;7.524;2023-01-04T03:51:25;4.65;;;2.17;;
67816;SDS011;54614;47.576;7.524;2023-01-04T03:54:02;2.50;;;2.30;;
67816;SDS011;54614;47.576;7.524;2023-01-04T03:56:49;2.30;;;2.10;;
67816;SDS011;54614;47.576;7.524;2023-01-04T03:59:17;2.33;;;2.13;;
67816;SDS011;54614;47.576;7.524;2023-01-04T04:01:43;2.47;;;2.25;;
67816;SDS011;54614;47.576;7.524;2023-01-04T04:04:09;2.60;;;2.40;;
67816;SDS011;54614;47.576;7.524;2023-01-04T04:06:54;2.13;;;1.92;;
67816;SDS011;54614;47.576;7.524;2023-01-04T04:09:38;3.30;;;2.10;;
67816;SDS011;54614;47.576;7.524;2023-01-04T04:12:04;2.30;;;2.10;;
67816;SDS011;54614;47.576;7.524;2023-01-04T04:14:30;2.15;;;1.95;;
67816;SDS011;54614;47.576;7.524;2023-01-04T04:16:59;2.23;;;2.03;;
67816;SDS011;54614;47.576;7.524;2023-01-04T04:19:25;2.50;;;2.20;;
67816;SDS011;54614;47.576;7.524;2023-01-04T04:21:51;2.38;;;2.17;;
67816;SDS011;54614;47.576;7.524;2023-01-04T04:24:18;2.97;;;1.90;;
67816;SDS011;54614;47.576;7.524;2023-01-04T04:26:49;2.85;;;2.00;;
67816;SDS011;54614;47.576;7.524;2023-01-04T04:29:18;4.60;;;2.40;;
67816;SDS011;54614;47.576;7.524;2023-01-04T04:31:44;2.47;;;2.20;;
67816;SDS011;54614;47.576;7.524;2023-01-04T04:34:11;2.92;;;2.08;;
67816;SDS011;54614;47.576;7.524;2023-01-04T04:36:37;4.70;;;2.20;;
67816;SDS011;54614;47.576;7.524;2023-01-04T04:39:03;3.45;;;2.10;;
67816;SDS011;54614;47.576;7.524;2023-01-04T04:41:30;2.55;;;1.98;;
67816;SDS011;54614;47.576;7.524;2023-01-04T04:44:03;3.28;;;2.05;;
67816;SDS011;54614;47.576;7.524;2023-01-04T04:46:47;3.25;;;2.00;;
67816;SDS011;54614;47.576;7.524;2023-01-04T04:49:14;2.40;;;2.20;;
67816;SDS011;54614;47.576;7.524;2023-01-04T04:51:42;2.27;;;2.07;;
67816;SDS011;54614;47.576;7.524;2023-01-04T04:54:10;2.63;;;2.30;;
67816;SDS011;54614;47.576;7.524;2023-01-04T04:56:41;2.00;;;1.80;;
67816;SDS011;54614;47.576;7.524;2023-01-04T04:59:07;2.38;;;2.10;;
67816;SDS011;54614;47.576;7.524;2023-01-04T05:01:33;2.15;;;1.95;;
67816;SDS011;54614;47.576;7.524;2023-01-04T05:03:59;2.53;;;1.98;;
67816;SDS011;54614;47.576;7.524;2023-01-04T05:06:25;1.95;;;1.80;;
67816;SDS011;54614;47.576;7.524;2023-01-04T05:08:51;2.10;;;1.90;;
67816;SDS011;54614;47.576;7.524;2023-01-04T05:11:17;4.70;;;2.10;;
67816;SDS011;54614;47.576;7.524;2023-01-04T05:14:03;2.75;;;1.80;;
67816;SDS011;54614;47.576;7.524;2023-01-04T05:16:29;1.88;;;1.77;;
67816;SDS011;54614;47.576;7.524;2023-01-04T05:18:54;4.03;;;1.80;;
67816;SDS011;54614;47.576;7.524;2023-01-04T05:21:20;1.80;;;1.70;;
67816;SDS011;54614;47.576;7.524;2023-01-04T05:23:46;1.90;;;1.80;;
67816;SDS011;54614;47.576;7.524;2023-01-04T05:26:12;2.70;;;1.73;;
67816;SDS011;54614;47.576;7.524;2023-01-04T05:28:38;1.70;;;1.60;;
67816;SDS011;54614;47.576;7.524;2023-01-04T05:31:03;2.08;;;1.60;;
67816;SDS011;54614;47.576;7.524;2023-01-04T05:33:30;1.73;;;1.63;;
67816;SDS011;54614;47.576;7.524;2023-01-04T05:35:57;1.83;;;1.65;;
67816;SDS011;54614;47.576;7.524;2023-01-04T05:38:26;4.10;;;1.80;;
67816;SDS011;54614;47.576;7.524;2023-01-04T05:40:53;1.80;;;1.70;;
67816;SDS011;54614;47.576;7.524;2023-01-04T05:43:20;2.17;;;1.70;;
67816;SDS011;54614;47.576;7.524;2023-01-04T05:45:48;2.72;;;1.70;;
67816;SDS011;54614;47.576;7.524;2023-01-04T05:48:17;1.80;;;1.70;;
67816;SDS011;54614;47.576;7.524;2023-01-04T05:50:46;1.60;;;1.50;;
67816;SDS011;54614;47.576;7.524;2023-01-04T05:53:12;1.80;;;1.50;;
67816;SDS011;54614;47.576;7.524;2023-01-04T05:55:44;1.67;;;1.58;;
67816;SDS011;54614;47.576;7.524;2023-01-04T05:58:12;1.40;;;1.30;;
67816;SDS011;54614;47.576;7.524;2023-01-04T06:00:37;1.70;;;1.60;;
67816;SDS011;54614;47.576;7.524;2023-01-04T06:03:03;1.60;;;1.50;;
67816;SDS011;54614;47.576;7.524;2023-01-04T06:05:32;2.05;;;1.67;;
67816;SDS011;54614;47.576;7.524;2023-01-04T06:07:58;6.28;;;2.03;;
67816;SDS011;54614;47.576;7.524;2023-01-04T06:10:24;3.07;;;1.70;;
67816;SDS011;54614;47.576;7.524;2023-01-04T06:12:50;1.88;;;1.73;;
67816;SDS011;54614;47.576;7.524;2023-01-04T06:15:16;2.70;;;1.70;;
67816;SDS011;54614;47.576;7.524;2023-01-04T06:17:41;1.77;;;1.67;;
67816;SDS011;54614;47.576;7.524;2023-01-04T06:20:08;2.95;;;1.50;;
67816;SDS011;54614;47.576;7.524;2023-01-04T06:22:35;1.60;;;1.50;;
67816;SDS011;54614;47.576;7.524;2023-01-04T06:25:04;2.78;;;1.50;;
67816;SDS011;54614;47.576;7.524;2023-01-04T06:27:31;2.33;;;1.60;;
67816;SDS011;54614;47.576;7.524;2023-01-04T06:29:56;3.08;;;1.80;;
67816;SDS011;54614;47.576;7.524;2023-01-04T06:32:22;2.95;;;1.50;;
67816;SDS011;54614;47.576;7.524;2023-01-04T06:34:48;2.42;;;1.70;;
67816;SDS011;54614;47.576;7.524;2023-01-04T06:37:14;5.53;;;1.73;;
67816;SDS011;54614;47.576;7.524;2023-01-04T06:39:40;3.23;;;1.70;;
67816;SDS011;54614;47.576;7.524;2023-01-04T06:42:06;3.38;;;1.60;;
67816;SDS011;54614;47.576;7.524;2023-01-04T06:44:52;1.80;;;1.63;;
67816;SDS011;54614;47.576;7.524;2023-01-04T06:47:17;7.10;;;1.55;;
67816;SDS011;54614;47.576;7.524;2023-01-04T06:49:43;9.52;;;1.52;;
67816;SDS011;54614;47.576;7.524;2023-01-04T06:52:09;7.68;;;1.80;;
67816;SDS011;54614;47.576;7.524;2023-01-04T06:54:35;3.50;;;1.60;;
67816;SDS011;54614;47.576;7.524;2023-01-04T06:57:01;14.15;;;1.80;;
67816;SDS011;54614;47.576;7.524;2023-01-04T06:59:26;7.25;;;1.73;;
67816;SDS011;54614;47.576;7.524;2023-01-04T07:01:52;1.83;;;1.50;;
67816;SDS011;54614;47.576;7.524;2023-01-04T07:04:18;4.63;;;1.75;;
67816;SDS011;54614;47.576;7.524;2023-01-04T07:06:44;4.60;;;1.70;;
67816;SDS011;54614;47.576;7.524;2023-01-04T07:09:09;11.65;;;1.60;;
67816;SDS011;54614;47.576;7.524;2023-01-04T07:11:35;3.63;;;1.70;;
67816;SDS011;54614;47.576;7.524;2023-01-04T07:14:01;4.25;;;1.70;;
67816;SDS011;54614;47.576;7.524;2023-01-04T07:16:27;4.30;;;1.73;;
67816;SDS011;54614;47.576;7.524;2023-01-04T07:18:52;4.18;;;1.75;;
67816;SDS011;54614;47.576;7.524;2023-01-04T07:21:18;5.70;;;1.48;;
67816;SDS011;54614;47.576;7.524;2023-01-04T07:23:44;3.50;;;1.67;;
67816;SDS011;54614;47.576;7.524;2023-01-04T07:26:10;2.97;;;1.70;;
67816;SDS011;54614;47.576;7.524;2023-01-04T07:28:36;9.75;;;1.70;;
67816;SDS011;54614;47.576;7.524;2023-01-04T07:31:22;4.32;;;1.70;;
67816;SDS011;54614;47.576;7.524;2023-01-04T07:33:48;2.35;;;1.50;;
67816;SDS011;54614;47.576;7.524;2023-01-04T07:36:15;1.58;;;1.48;;
67816;SDS011;54614;47.576;7.524;2023-01-04T07:38:41;8.18;;;1.60;;
67816;SDS011;54614;47.576;7.524;2023-01-04T07:41:10;4.60;;;1.40;;
67816;SDS011;54614;47.576;7.524;2023-01-04T07:43:36;1.50;;;1.30;;
67816;SDS011;54614;47.576;7.524;2023-01-04T07:46:02;4.72;;;1.40;;
67816;SDS011;54614;47.576;7.524;2023-01-04T07:48:28;4.72;;;1.60;;
67816;SDS011;54614;47.576;7.524;2023-01-04T07:50:53;4.38;;;1.30;;
67816;SDS011;54614;47.576;7.524;2023-01-04T07:53:19;6.78;;;1.60;;
67816;SDS011;54614;47.576;7.524;2023-01-04T07:55:45;6.60;;;1.65;;
67816;SDS011;54614;47.576;7.524;2023-01-04T07:58:11;1.63;;;1.35;;
67816;SDS011;54614;47.576;7.524;2023-01-04T08:00:37;14.57;;;2.40;;
67816;SDS011;54614;47.576;7.524;2023-01-04T08:03:03;9.52;;;1.83;;
67816;SDS011;54614;47.576;7.524;2023-01-04T08:05:32;6.70;;;1.90;;
67816;SDS011;54614;47.576;7.524;2023-01-04T08:07:59;11.40;;;2.00;;
67816;SDS011;54614;47.576;7.524;2023-01-04T08:10:25;5.82;;;1.92;;
67816;SDS011;54614;47.576;7.524;2023-01-04T08:12:51;8.80;;;2.00;;
67816;SDS011;54614;47.576;7.524;2023-01-04T08:15:17;9.05;;;1.75;;
67816;SDS011;54614;47.576;7.524;2023-01-04T08:17:43;2.45;;;1.45;;
67816;SDS011;54614;47.576;7.524;2023-01-04T08:20:09;4.57;;;1.77;;
67816;SDS011;54614;47.576;7.524;2023-01-04T08:22:35;6.32;;;1.65;;
67816;SDS011;54614;47.576;7.524;2023-01-04T08:25:01;6.82;;;1.48;;
67816;SDS011;54614;47.576;7.524;2023-01-04T08:27:30;3.35;;;1.38;;
67816;SDS011;54614;47.576;7.524;2023-01-04T08:29:56;5.05;;;1.40;;
67816;SDS011;54614;47.576;7.524;2023-01-04T08:32:24;3.55;;;1.50;;
67816;SDS011;54614;47.576;7.524;2023-01-04T08:34:50;6.88;;;1.85;;
67816;SDS011;54614;47.576;7.524;2023-01-04T08:37:17;1.63;;;1.33;;
67816;SDS011;54614;47.576;7.524;2023-01-04T08:39:43;1.35;;;1.25;;
67816;SDS011;54614;47.576;7.524;2023-01-04T08:42:08;2.97;;;1.70;;
67816;SDS011;54614;47.576;7.524;2023-01-04T08:44:34;2.92;;;1.42;;
67816;SDS011;54614;47.576;7.524;2023-01-04T08:47:00;2.15;;;1.45;;
67816;SDS011;54614;47.576;7.524;2023-01-04T08:49:27;2.53;;;1.65;;
67816;SDS011;54614;47.576;7.524;2023-01-04T08:51:52;4.32;;;1.60;;
67816;SDS011;54614;47.576;7.524;2023-01-04T08:54:18;3.05;;;1.55;;
67816;SDS011;54614;47.576;7.524;2023-01-04T08:56:44;3.40;;;1.48;;
67816;SDS011;54614;47.576;7.524;2023-01-04T08:59:10;3.60;;;1.60;;
67816;SDS011;54614;47.576;7.524;2023-01-04T09:01:38;3.15;;;1.60;;
67816;SDS011;54614;47.576;7.524;2023-01-04T09:04:04;3.22;;;1.50;;
67816;SDS011;54614;47.576;7.524;2023-01-04T09:06:30;2.55;;;1.55;;
67816;SDS011;54614;47.576;7.524;2023-01-04T09:08:57;3.45;;;1.42;;
67816;SDS011;54614;47.576;7.524;2023-01-04T09:11:23;2.90;;;1.60;;
67816;SDS011;54614;47.576;7.524;2023-01-04T09:13:54;3.65;;;1.63;;
67816;SDS011;54614;47.576;7.524;2023-01-04T09:16:21;8.35;;;1.90;;
67816;SDS011;54614;47.576;7.524;2023-01-04T09:18:48;5.20;;;1.63;;
67816;SDS011;54614;47.576;7.524;2023-01-04T09:21:15;4.85;;;1.70;;
67816;SDS011;54614;47.576;7.524;2023-01-04T09:23:45;9.90;;;1.60;;
67816;SDS011;54614;47.576;7.524;2023-01-04T09:26:12;7.05;;;1.70;;
67816;SDS011;54614;47.576;7.524;2023-01-04T09:28:47;3.42;;;1.80;;
67816;SDS011;54614;47.576;7.524;2023-01-04T09:31:17;3.38;;;1.70;;
67816;SDS011;54614;47.576;7.524;2023-01-04T09:33:46;4.00;;;1.60;;
67816;SDS011;54614;47.576;7.524;2023-01-04T09:36:13;5.72;;;1.70;;
67816;SDS011;54614;47.576;7.524;2023-01-04T09:38:41;3.30;;;1.70;;
67816;SDS011;54614;47.576;7.524;2023-01-04T09:41:27;2.95;;;1.67;;
67816;SDS011;54614;47.576;7.524;2023-01-04T09:46:58;1.98;;;1.67;;
67816;SDS011;54614;47.576;7.524;2023-01-04T09:49:43;10.18;;;1.85;;
67816;SDS011;54614;47.576;7.524;2023-01-04T09:52:35;4.80;;;1.73;;
67816;SDS011;54614;47.576;7.524;2023-01-04T09:55:34;2.35;;;1.65;;
67816;SDS011;54614;47.576;7.524;2023-01-04T10:00:59;4.57;;;1.70;;
67816;SDS011;54614;47.576;7.524;2023-01-04T10:03:30;2.58;;;1.45;;
67816;SDS011;54614;47.576;7.524;2023-01-04T10:06:04;2.03;;;1.60;;
67816;SDS011;54614;47.576;7.524;2023-01-04T10:08:35;7.28;;;1.75;;
67816;SDS011;54614;47.576;7.524;2023-01-04T10:16:45;3.80;;;1.60;;
67816;SDS011;54614;47.576;7.524;2023-01-04T10:19:21;2.22;;;1.80;;
67816;SDS011;54614;47.576;7.524;2023-01-04T10:22:37;2.47;;;1.70;;
67816;SDS011;54614;47.576;7.524;2023-01-04T10:25:26;6.80;;;1.90;;
67816;SDS011;54614;47.576;7.524;2023-01-04T10:31:09;3.25;;;1.73;;
67816;SDS011;54614;47.576;7.524;2023-01-04T10:33:54;4.93;;;1.60;;
67816;SDS011;54614;47.576;7.524;2023-01-04T10:36:51;4.78;;;1.88;;
67816;SDS011;54614;47.576;7.524;2023-01-04T10:39:23;5.82;;;1.73;;
67816;SDS011;54614;47.576;7.524;2023-01-04T10:51:03;3.60;;;2.03;;
67816;SDS011;54614;47.576;7.524;2023-01-04T10:53:40;3.30;;;1.90;;
67816;SDS011;54614;47.576;7.524;2023-01-04T10:59:12;5.93;;;1.80;;
67816;SDS011;54614;47.576;7.524;2023-01-04T11:04:42;9.13;;;2.00;;
67816;SDS011;54614;47.576;7.524;2023-01-04T11:07:45;4.05;;;2.00;;
67816;SDS011;54614;47.576;7.524;2023-01-04T11:10:27;6.40;;;1.90;;
67816;SDS011;54614;47.576;7.524;2023-01-04T11:13:02;10.05;;;2.15;;
67816;SDS011;54614;47.576;7.524;2023-01-04T11:15:29;29.55;;;15.30;;
67816;SDS011;54614;47.576;7.524;2023-01-04T11:17:55;295.65;;;117.22;;
67816;SDS011;54614;47.576;7.524;2023-01-04T11:20:24;266.08;;;107.22;;
67816;SDS011;54614;47.576;7.524;2023-01-04T11:25:24;229.80;;;94.50;;
67816;SDS011;54614;47.576;7.524;2023-01-04T11:36:33;142.88;;;60.22;;
67816;SDS011;54614;47.576;7.524;2023-01-04T11:39:25;131.75;;;55.60;;
67816;SDS011;54614;47.576;7.524;2023-01-04T11:41:55;132.07;;;54.22;;
67816;SDS011;54614;47.576;7.524;2023-01-04T11:44:24;124.63;;;51.80;;
67816;SDS011;54614;47.576;7.524;2023-01-04T11:49:44;114.32;;;49.20;;
67816;SDS011;54614;47.576;7.524;2023-01-04T11:55:43;106.97;;;45.95;;
67816;SDS011;54614;47.576;7.524;2023-01-04T11:58:14;98.97;;;43.45;;
67816;SDS011;54614;47.576;7.524;2023-01-04T12:00:51;95.25;;;42.72;;
67816;SDS011;54614;47.576;7.524;2023-01-04T12:03:24;88.38;;;40.22;;
67816;SDS011;54614;47.576;7.524;2023-01-04T12:06:49;88.70;;;39.42;;
67816;SDS011;54614;47.576;7.524;2023-01-04T12:09:01;83.80;;;37.28;;
67816;SDS011;54614;47.576;7.524;2023-01-04T12:11:28;85.93;;;37.10;;
67816;SDS011;54614;47.576;7.524;2023-01-04T12:14:10;75.88;;;35.45;;
67816;SDS011;54614;47.576;7.524;2023-01-04T12:19:51;77.35;;;33.20;;
67816;SDS011;54614;47.576;7.524;2023-01-04T12:22:24;71.57;;;32.55;;
67816;SDS011;54614;47.576;7.524;2023-01-04T12:25:01;68.25;;;31.35;;
67816;SDS011;54614;47.576;7.524;2023-01-04T12:27:33;67.65;;;30.52;;
67816;SDS011;54614;47.576;7.524;2023-01-04T12:30:01;69.10;;;30.42;;
67816;SDS011;54614;47.576;7.524;2023-01-04T12:34:56;63.92;;;27.73;;
67816;SDS011;54614;47.576;7.524;2023-01-04T12:37:43;59.90;;;25.80;;
67816;SDS011;54614;47.576;7.524;2023-01-04T12:45:39;52.22;;;23.98;;
67816;SDS011;54614;47.576;7.524;2023-01-04T12:51:17;56.97;;;23.60;;
67816;SDS011;54614;47.576;7.524;2023-01-04T12:53:55;46.80;;;21.92;;
67816;SDS011;54614;47.576;7.524;2023-01-04T12:59:59;41.92;;;20.88;;
67816;SDS011;54614;47.576;7.524;2023-01-04T13:02:46;44.70;;;20.67;;
67816;SDS011;54614;47.576;7.524;2023-01-04T13:05:38;41.10;;;19.30;;
67816;SDS011;54614;47.576;7.524;2023-01-04T13:08:27;44.67;;;20.23;;
67816;SDS011;54614;47.576;7.524;2023-01-04T13:10:57;38.85;;;18.30;;
67816;SDS011;54614;47.576;7.524;2023-01-04T13:13:27;40.55;;;19.08;;
67816;SDS011;54614;47.576;7.524;2023-01-04T13:19:40;38.60;;;18.20;;
67816;SDS011;54614;47.576;7.524;2023-01-04T13:22:02;37.90;;;17.60;;
67816;SDS011;54614;47.576;7.524;2023-01-04T13:24:53;37.75;;;17.83;;
67816;SDS011;54614;47.576;7.524;2023-01-04T13:27:23;35.45;;;16.55;;
67816;SDS011;54614;47.576;7.524;2023-01-04T13:29:50;36.35;;;15.95;;
67816;SDS011;54614;47.576;7.524;2023-01-04T13:34:53;33.13;;;15.73;;
67816;SDS011;54614;47.576;7.524;2023-01-04T13:37:45;31.17;;;15.75;;
67816;SDS011;54614;47.576;7.524;2023-01-04T13:42:42;33.40;;;15.13;;
67816;SDS011;54614;47.576;7.524;2023-01-04T13:47:57;32.45;;;15.23;;
67816;SDS011;54614;47.576;7.524;2023-01-04T13:50:33;32.42;;;14.55;;
67816;SDS011;54614;47.576;7.524;2023-01-04T13:53:02;28.17;;;13.75;;
67816;SDS011;54614;47.576;7.524;2023-01-04T13:55:30;26.48;;;13.20;;
67816;SDS011;54614;47.576;7.524;2023-01-04T13:58:00;30.20;;;13.48;;
67816;SDS011;54614;47.576;7.524;2023-01-04T14:01:15;26.38;;;13.07;;
67816;SDS011;54614;47.576;7.524;2023-01-04T14:11:41;24.45;;;11.95;;
67816;SDS011;54614;47.576;7.524;2023-01-04T14:17:15;31.05;;;12.95;;
67816;SDS011;54614;47.576;7.524;2023-01-04T14:19:45;23.55;;;11.70;;
67816;SDS011;54614;47.576;7.524;2023-01-04T14:22:18;28.35;;;12.07;;
67816;SDS011;54614;47.576;7.524;2023-01-04T14:30:53;23.45;;;11.23;;
67816;SDS011;54614;47.576;7.524;2023-01-04T14:33:28;21.30;;;11.45;;
67816;SDS011;54614;47.576;7.524;2023-01-04T14:38:58;21.42;;;11.00;;
67816;SDS011;54614;47.576;7.524;2023-01-04T14:46:25;21.20;;;10.10;;
67816;SDS011;54614;47.576;7.524;2023-01-04T14:48:53;21.10;;;10.38;;
67816;SDS011;54614;47.576;7.524;2023-01-04T14:51:20;19.50;;;10.52;;
67816;SDS011;54614;47.576;7.524;2023-01-04T14:54:13;19.42;;;10.10;;
67816;SDS011;54614;47.576;7.524;2023-01-04T14:56:40;21.50;;;10.35;;
67816;SDS011;54614;47.576;7.524;2023-01-04T14:59:07;20.13;;;10.13;;
67816;SDS011;54614;47.576;7.524;2023-01-04T15:01:33;18.58;;;9.77;;
67816;SDS011;54614;47.576;7.524;2023-01-04T15:04:00;21.90;;;10.68;;
67816;SDS011;54614;47.576;7.524;2023-01-04T15:06:28;18.75;;;10.10;;
67816;SDS011;54614;47.576;7.524;2023-01-04T15:08:53;19.73;;;10.07;;
67816;SDS011;54614;47.576;7.524;2023-01-04T15:11:19;22.15;;;10.50;;
67816;SDS011;54614;47.576;7.524;2023-01-04T15:13:45;19.73;;;9.93;;
67816;SDS011;54614;47.576;7.524;2023-01-04T15:16:12;18.90;;;9.52;;
67816;SDS011;54614;47.576;7.524;2023-01-04T15:18:41;17.42;;;9.48;;
67816;SDS011;54614;47.576;7.524;2023-01-04T15:21:08;19.33;;;9.32;;
67816;SDS011;54614;47.576;7.524;2023-01-04T15:23:35;19.50;;;10.02;;
67816;SDS011;54614;47.576;7.524;2023-01-04T15:26:05;16.90;;;9.63;;
67816;SDS011;54614;47.576;7.524;2023-01-04T15:28:33;16.27;;;9.18;;
67816;SDS011;54614;47.576;7.524;2023-01-04T15:31:04;18.38;;;9.25;;
67816;SDS011;54614;47.576;7.524;2023-01-04T15:33:35;16.73;;;9.40;;
67816;SDS011;54614;47.576;7.524;2023-01-04T15:36:12;16.58;;;9.02;;
67816;SDS011;54614;47.576;7.524;2023-01-04T15:38:40;16.98;;;8.82;;
67816;SDS011;54614;47.576;7.524;2023-01-04T15:41:14;16.33;;;9.02;;
67816;SDS011;54614;47.576;7.524;2023-01-04T15:44:00;14.90;;;8.50;;
67816;SDS011;54614;47.576;7.524;2023-01-04T15:46:32;14.63;;;8.48;;
67816;SDS011;54614;47.576;7.524;2023-01-04T15:48:58;16.83;;;8.77;;
67816;SDS011;54614;47.576;7.524;2023-01-04T15:51:23;13.68;;;7.68;;
67816;SDS011;54614;47.576;7.524;2023-01-04T15:53:50;15.25;;;7.72;;
67816;SDS011;54614;47.576;7.524;2023-01-04T15:56:17;18.23;;;8.15;;
67816;SDS011;54614;47.576;7.524;2023-01-04T15:58:44;15.75;;;7.88;;
67816;SDS011;54614;47.576;7.524;2023-01-04T16:01:12;15.90;;;8.10;;
67816;SDS011;54614;47.576;7.524;2023-01-04T16:03:40;16.15;;;7.72;;
67816;SDS011;54614;47.576;7.524;2023-01-04T16:06:13;22.02;;;7.93;;
67816;SDS011;54614;47.576;7.524;2023-01-04T16:08:41;13.00;;;6.97;;
67816;SDS011;54614;47.576;7.524;2023-01-04T16:11:14;17.52;;;7.47;;
67816;SDS011;54614;47.576;7.524;2023-01-04T16:13:49;13.13;;;7.13;;
67816;SDS011;54614;47.576;7.524;2023-01-04T16:16:17;13.20;;;7.30;;
67816;SDS011;54614;47.576;7.524;2023-01-04T16:18:49;14.02;;;7.32;;
67816;SDS011;54614;47.576;7.524;2023-01-04T16:21:19;16.70;;;7.40;;
67816;SDS011;54614;47.576;7.524;2023-01-04T16:23:50;15.23;;;6.97;;
67816;SDS011;54614;47.576;7.524;2023-01-04T16:26:22;14.55;;;6.60;;
67816;SDS011;54614;47.576;7.524;2023-01-04T16:28:52;12.75;;;6.78;;
67816;SDS011;54614;47.576;7.524;2023-01-04T16:31:19;12.68;;;6.63;;
67816;SDS011;54614;47.576;7.524;2023-01-04T16:33:49;15.82;;;6.93;;
67816;SDS011;54614;47.576;7.524;2023-01-04T16:36:18;13.52;;;6.70;;
67816;SDS011;54614;47.576;7.524;2023-01-04T16:38:44;14.90;;;6.68;;
67816;SDS011;54614;47.576;7.524;2023-01-04T16:41:11;13.45;;;6.55;;
67816;SDS011;54614;47.576;7.524;2023-01-04T16:43:44;12.13;;;5.90;;
67816;SDS011;54614;47.576;7.524;2023-01-04T16:46:31;14.98;;;6.38;;
67816;SDS011;54614;47.576;7.524;2023-01-04T16:51:40;10.57;;;5.78;;
67816;SDS011;54614;47.576;7.524;2023-01-04T16:54:12;11.50;;;6.40;;
67816;SDS011;54614;47.576;7.524;2023-01-04T16:56:40;14.02;;;6.35;;
67816;SDS011;54614;47.576;7.524;2023-01-04T16:59:11;13.38;;;6.35;;
67816;SDS011;54614;47.576;7.524;2023-01-04T17:01:42;10.48;;;6.10;;
67816;SDS011;54614;47.576;7.524;2023-01-04T17:04:10;13.38;;;6.38;;
67816;SDS011;54614;47.576;7.524;2023-01-04T17:06:37;11.98;;;5.80;;
67816;SDS011;54614;47.576;7.524;2023-01-04T17:09:06;13.45;;;6.45;;
67816;SDS011;54614;47.576;7.524;2023-01-04T17:11:37;12.45;;;6.30;;
67816;SDS011;54614;47.576;7.524;2023-01-04T17:14:04;9.13;;;6.05;;
67816;SDS011;54614;47.576;7.524;2023-01-04T17:16:32;8.48;;;5.60;;
67816;SDS011;54614;47.576;7.524;2023-01-04T17:18:58;12.07;;;5.70;;
67816;SDS011;54614;47.576;7.524;2023-01-04T17:21:25;12.05;;;6.15;;
67816;SDS011;54614;47.576;7.524;2023-01-04T17:23:54;8.65;;;5.63;;
67816;SDS011;54614;47.576;7.524;2023-01-04T17:26:26;11.70;;;6.15;;
67816;SDS011;54614;47.576;7.524;2023-01-04T17:28:55;12.38;;;5.63;;